sensor_id;sensor_type;location;lat;lon;timestamp;temperature;humidity
76211;DHT22;65003;49.518;11.280;2023-09-12T00:01:09;19.50;99.90
76211;DHT22;65003;49.518;11.280;2023-09-12T00:03:36;19.50;99.90
76211;DHT22;65003;49.518;11.280;2023-09-12T00:06:03;19.40;99.90
76211;DHT22;65003;49.518;11.280;2023-09-12T00:08:29;19.30;99.90
76211;DHT22;65003;49.518;11.280;2023-09-12T00:11:02;19.30;99.90
76211;DHT22;65003;49.518;11.280;2023-09-12T00:13:28;19.30;99.90
76211;DHT22;65003;49.518;11.280;2023-09-12T00:15:55;19.30;99.90
76211;DHT22;65003;49.518;11.280;2023-09-12T00:18:21;19.30;99.90
76211;DHT22;65003;49.518;11.280;2023-09-12T00:20:48;19.20;99.90
76211;DHT22;65003;49.518;11.280;2023-09-12T00:23:14;19.20;99.90
76211;DHT22;65003;49.518;11.280;2023-09-12T00:25:41;19.20;99.90
76211;DHT22;65003;49.518;11.280;2023-09-12T00:28:07;19.00;99.90
76211;DHT22;65003;49.518;11.280;2023-09-12T00:30:34;19.00;99.90
76211;DHT22;65003;49.518;11.280;2023-09-12T00:33:01;18.90;99.90
76211;DHT22;65003;49.518;11.280;2023-09-12T00:35:27;18.90;99.90
76211;DHT22;65003;49.518;11.280;2023-09-12T00:37:54;18.80;99.90
76211;DHT22;65003;49.518;11.280;2023-09-12T00:40:21;18.80;99.90
76211;DHT22;65003;49.518;11.280;2023-09-12T00:42:47;18.70;99.90
76211;DHT22;65003;49.518;11.280;2023-09-12T00:45:14;18.70;99.90
76211;DHT22;65003;49.518;11.280;2023-09-12T00:47:40;18.60;99.90
76211;DHT22;65003;49.518;11.280;2023-09-12T00:50:07;18.50;99.90
76211;DHT22;65003;49.518;11.280;2023-09-12T00:52:34;18.50;99.90
76211;DHT22;65003;49.518;11.280;2023-09-12T00:55:00;18.50;99.90
76211;DHT22;65003;49.518;11.280;2023-09-12T00:57:27;18.40;99.90
76211;DHT22;65003;49.518;11.280;2023-09-12T00:59:53;18.30;99.90
76211;DHT22;65003;49.518;11.280;2023-09-12T01:02:20;18.20;99.90
76211;DHT22;65003;49.518;11.280;2023-09-12T01:04:47;18.20;99.90
76211;DHT22;65003;49.518;11.280;2023-09-12T01:07:13;18.20;99.90
76211;DHT22;65003;49.518;11.280;2023-09-12T01:09:40;18.20;99.90
76211;DHT22;65003;49.518;11.280;2023-09-12T01:12:06;18.20;99.90
76211;DHT22;65003;49.518;11.280;2023-09-12T01:14:33;18.10;99.90
76211;DHT22;65003;49.518;11.280;2023-09-12T01:17:00;18.10;99.90
76211;DHT22;65003;49.518;11.280;2023-09-12T01:19:27;18.10;99.90
76211;DHT22;65003;49.518;11.280;2023-09-12T01:22:35;18.10;99.90
76211;DHT22;65003;49.518;11.280;2023-09-12T01:25:07;18.10;99.90
76211;DHT22;65003;49.518;11.280;2023-09-12T01:27:33;18.10;99.90
76211;DHT22;65003;49.518;11.280;2023-09-12T01:29:57;18.10;99.90
76211;DHT22;65003;49.518;11.280;2023-09-12T01:32:23;18.10;99.90
76211;DHT22;65003;49.518;11.280;2023-09-12T01:34:50;18.10;99.90
76211;DHT22;65003;49.518;11.280;2023-09-12T01:37:17;18.10;99.90
76211;DHT22;65003;49.518;11.280;2023-09-12T01:39:43;18.10;99.90
76211;DHT22;65003;49.518;11.280;2023-09-12T01:42:11;18.10;99.90
76211;DHT22;65003;49.518;11.280;2023-09-12T01:44:36;18.10;99.90
76211;DHT22;65003;49.518;11.280;2023-09-12T01:47:03;18.10;99.90
76211;DHT22;65003;49.518;11.280;2023-09-12T01:49:30;18.00;99.90
76211;DHT22;65003;49.518;11.280;2023-09-12T01:51:56;18.00;99.90
76211;DHT22;65003;49.518;11.280;2023-09-12T01:54:23;18.10;99.90
76211;DHT22;65003;49.518;11.280;2023-09-12T01:56:49;18.10;99.90
76211;DHT22;65003;49.518;11.280;2023-09-12T01:59:16;18.10;99.90
76211;DHT22;65003;49.518;11.280;2023-09-12T02:01:43;18.10;99.90
76211;DHT22;65003;49.518;11.280;2023-09-12T02:04:09;18.10;99.90
76211;DHT22;65003;49.518;11.280;2023-09-12T02:06:36;18.00;99.90
76211;DHT22;65003;49.518;11.280;2023-09-12T02:09:03;17.90;99.90
76211;DHT22;65003;49.518;11.280;2023-09-12T02:11:29;17.80;99.90
76211;DHT22;65003;49.518;11.280;2023-09-12T02:13:56;17.70;99.90
76211;DHT22;65003;49.518;11.280;2023-09-12T02:16:22;17.70;99.90
76211;DHT22;65003;49.518;11.280;2023-09-12T02:18:49;17.60;99.90
76211;DHT22;65003;49.518;11.280;2023-09-12T02:21:15;17.60;99.90
76211;DHT22;65003;49.518;11.280;2023-09-12T02:23:43;17.60;99.90
76211;DHT22;65003;49.518;11.280;2023-09-12T02:26:09;17.50;99.90
76211;DHT22;65003;49.518;11.280;2023-09-12T02:28:36;17.50;99.90
76211;DHT22;65003;49.518;11.280;2023-09-12T02:31:03;17.50;99.90
76211;DHT22;65003;49.518;11.280;2023-09-12T02:33:29;17.50;99.90
76211;DHT22;65003;49.518;11.280;2023-09-12T02:35:56;17.60;99.90
76211;DHT22;65003;49.518;11.280;2023-09-12T02:38:22;17.60;99.90
76211;DHT22;65003;49.518;11.280;2023-09-12T02:40:49;17.60;99.90
76211;DHT22;65003;49.518;11.280;2023-09-12T02:43:15;17.60;99.90
76211;DHT22;65003;49.518;11.280;2023-09-12T02:45:42;17.60;99.90
76211;DHT22;65003;49.518;11.280;2023-09-12T02:48:09;17.50;99.90
76211;DHT22;65003;49.518;11.280;2023-09-12T02:50:35;17.50;99.90
76211;DHT22;65003;49.518;11.280;2023-09-12T02:53:02;17.40;99.90
76211;DHT22;65003;49.518;11.280;2023-09-12T02:55:29;17.40;99.90
76211;DHT22;65003;49.518;11.280;2023-09-12T02:57:55;17.30;99.90
76211;DHT22;65003;49.518;11.280;2023-09-12T03:00:22;17.30;99.90
76211;DHT22;65003;49.518;11.280;2023-09-12T03:02:48;17.30;99.90
76211;DHT22;65003;49.518;11.280;2023-09-12T03:05:15;17.30;99.90
76211;DHT22;65003;49.518;11.280;2023-09-12T03:07:42;17.30;99.90
76211;DHT22;65003;49.518;11.280;2023-09-12T03:10:08;17.20;99.90
76211;DHT22;65003;49.518;11.280;2023-09-12T03:12:35;17.20;99.90
76211;DHT22;65003;49.518;11.280;2023-09-12T03:15:02;17.20;99.90
76211;DHT22;65003;49.518;11.280;2023-09-12T03:17:28;17.20;99.90
76211;DHT22;65003;49.518;11.280;2023-09-12T03:19:55;17.20;99.90
76211;DHT22;65003;49.518;11.280;2023-09-12T03:22:22;17.20;99.90
76211;DHT22;65003;49.518;11.280;2023-09-12T03:24:48;17.20;99.90
76211;DHT22;65003;49.518;11.280;2023-09-12T03:27:15;17.20;99.90
76211;DHT22;65003;49.518;11.280;2023-09-12T03:29:41;17.20;99.90
76211;DHT22;65003;49.518;11.280;2023-09-12T03:32:08;17.10;99.90
76211;DHT22;65003;49.518;11.280;2023-09-12T03:34:34;17.20;99.90
76211;DHT22;65003;49.518;11.280;2023-09-12T03:37:01;17.20;99.90
76211;DHT22;65003;49.518;11.280;2023-09-12T03:39:28;17.20;99.90
76211;DHT22;65003;49.518;11.280;2023-09-12T03:41:54;17.20;99.90
76211;DHT22;65003;49.518;11.280;2023-09-12T03:44:21;17.20;99.90
76211;DHT22;65003;49.518;11.280;2023-09-12T03:46:47;17.20;99.90
76211;DHT22;65003;49.518;11.280;2023-09-12T03:49:14;17.20;99.90
76211;DHT22;65003;49.518;11.280;2023-09-12T03:51:41;17.10;99.90
76211;DHT22;65003;49.518;11.280;2023-09-12T03:54:07;17.10;99.90
76211;DHT22;65003;49.518;11.280;2023-09-12T03:56:34;17.10;99.90
76211;DHT22;65003;49.518;11.280;2023-09-12T03:59:00;17.10;99.90
76211;DHT22;65003;49.518;11.280;2023-09-12T04:01:27;17.10;99.90
76211;DHT22;65003;49.518;11.280;2023-09-12T04:03:54;17.10;99.90
76211;DHT22;65003;49.518;11.280;2023-09-12T04:06:20;17.00;99.90
76211;DHT22;65003;49.518;11.280;2023-09-12T04:08:47;17.00;99.90
76211;DHT22;65003;49.518;11.280;2023-09-12T04:11:13;17.10;99.90
76211;DHT22;65003;49.518;11.280;2023-09-12T04:13:40;17.10;99.90
76211;DHT22;65003;49.518;11.280;2023-09-12T04:16:06;17.00;99.90
76211;DHT22;65003;49.518;11.280;2023-09-12T04:18:33;17.00;99.90
76211;DHT22;65003;49.518;11.280;2023-09-12T04:21:00;16.90;99.90
76211;DHT22;65003;49.518;11.280;2023-09-12T04:23:26;16.90;99.90
76211;DHT22;65003;49.518;11.280;2023-09-12T04:25:53;16.90;99.90
76211;DHT22;65003;49.518;11.280;2023-09-12T04:28:19;16.80;99.90
76211;DHT22;65003;49.518;11.280;2023-09-12T04:30:46;16.80;99.90
76211;DHT22;65003;49.518;11.280;2023-09-12T04:33:13;16.90;99.90
76211;DHT22;65003;49.518;11.280;2023-09-12T04:35:39;16.80;99.90
76211;DHT22;65003;49.518;11.280;2023-09-12T04:38:06;16.90;99.90
76211;DHT22;65003;49.518;11.280;2023-09-12T04:40:32;16.80;99.90
76211;DHT22;65003;49.518;11.280;2023-09-12T04:42:59;16.80;99.90
76211;DHT22;65003;49.518;11.280;2023-09-12T04:45:26;16.80;99.90
76211;DHT22;65003;49.518;11.280;2023-09-12T04:47:52;16.80;99.90
76211;DHT22;65003;49.518;11.280;2023-09-12T04:50:19;16.80;99.90
76211;DHT22;65003;49.518;11.280;2023-09-12T04:52:45;16.80;99.90
76211;DHT22;65003;49.518;11.280;2023-09-12T04:55:12;16.70;99.90
76211;DHT22;65003;49.518;11.280;2023-09-12T04:57:38;16.60;99.90
76211;DHT22;65003;49.518;11.280;2023-09-12T05:00:06;16.60;99.90
76211;DHT22;65003;49.518;11.280;2023-09-12T05:02:32;16.60;99.90
76211;DHT22;65003;49.518;11.280;2023-09-12T05:04:59;16.70;99.90
76211;DHT22;65003;49.518;11.280;2023-09-12T05:07:26;16.70;99.90
76211;DHT22;65003;49.518;11.280;2023-09-12T05:09:52;16.80;99.90
76211;DHT22;65003;49.518;11.280;2023-09-12T05:12:19;16.90;99.90
76211;DHT22;65003;49.518;11.280;2023-09-12T05:14:45;17.00;99.90
76211;DHT22;65003;49.518;11.280;2023-09-12T05:17:12;17.00;99.90
76211;DHT22;65003;49.518;11.280;2023-09-12T05:19:39;17.00;99.90
76211;DHT22;65003;49.518;11.280;2023-09-12T05:22:05;16.90;99.90
76211;DHT22;65003;49.518;11.280;2023-09-12T05:24:32;17.00;99.90
76211;DHT22;65003;49.518;11.280;2023-09-12T05:26:58;17.00;99.90
76211;DHT22;65003;49.518;11.280;2023-09-12T05:29:25;17.10;99.90
76211;DHT22;65003;49.518;11.280;2023-09-12T05:31:52;17.10;99.90
76211;DHT22;65003;49.518;11.280;2023-09-12T05:34:18;17.20;99.90
76211;DHT22;65003;49.518;11.280;2023-09-12T05:36:45;17.40;99.90
76211;DHT22;65003;49.518;11.280;2023-09-12T05:39:11;17.50;99.90
76211;DHT22;65003;49.518;11.280;2023-09-12T05:41:38;17.60;99.90
76211;DHT22;65003;49.518;11.280;2023-09-12T05:44:05;17.80;99.90
76211;DHT22;65003;49.518;11.280;2023-09-12T05:46:31;18.00;99.90
76211;DHT22;65003;49.518;11.280;2023-09-12T05:48:58;18.40;99.90
76211;DHT22;65003;49.518;11.280;2023-09-12T05:51:24;18.60;99.90
76211;DHT22;65003;49.518;11.280;2023-09-12T05:53:51;18.80;99.90
76211;DHT22;65003;49.518;11.280;2023-09-12T05:56:18;19.10;99.90
76211;DHT22;65003;49.518;11.280;2023-09-12T05:58:44;19.50;99.90
76211;DHT22;65003;49.518;11.280;2023-09-12T06:01:11;19.90;99.90
76211;DHT22;65003;49.518;11.280;2023-09-12T06:03:38;20.10;99.80
76211;DHT22;65003;49.518;11.280;2023-09-12T06:06:04;20.40;99.00
76211;DHT22;65003;49.518;11.280;2023-09-12T06:08:31;20.60;98.60
76211;DHT22;65003;49.518;11.280;2023-09-12T06:10:57;21.30;97.50
76211;DHT22;65003;49.518;11.280;2023-09-12T06:13:24;21.80;95.00
76211;DHT22;65003;49.518;11.280;2023-09-12T06:15:51;22.10;94.20
76211;DHT22;65003;49.518;11.280;2023-09-12T06:18:17;22.10;94.20
76211;DHT22;65003;49.518;11.280;2023-09-12T06:20:44;22.40;93.30
76211;DHT22;65003;49.518;11.280;2023-09-12T06:23:10;22.80;92.60
76211;DHT22;65003;49.518;11.280;2023-09-12T06:25:37;23.30;91.60
76211;DHT22;65003;49.518;11.280;2023-09-12T06:28:05;23.70;90.50
76211;DHT22;65003;49.518;11.280;2023-09-12T06:30:30;23.90;88.10
76211;DHT22;65003;49.518;11.280;2023-09-12T06:32:57;23.90;88.90
76211;DHT22;65003;49.518;11.280;2023-09-12T06:35:24;24.10;87.70
76211;DHT22;65003;49.518;11.280;2023-09-12T06:37:50;24.40;86.00
76211;DHT22;65003;49.518;11.280;2023-09-12T06:40:17;24.70;84.70
76211;DHT22;65003;49.518;11.280;2023-09-12T06:42:43;24.60;83.80
76211;DHT22;65003;49.518;11.280;2023-09-12T06:45:11;25.00;83.60
76211;DHT22;65003;49.518;11.280;2023-09-12T06:47:37;25.40;81.30
76211;DHT22;65003;49.518;11.280;2023-09-12T06:50:04;26.00;78.90
76211;DHT22;65003;49.518;11.280;2023-09-12T06:52:30;26.40;77.80
76211;DHT22;65003;49.518;11.280;2023-09-12T06:54:57;27.00;74.90
76211;DHT22;65003;49.518;11.280;2023-09-12T06:57:24;27.60;73.10
76211;DHT22;65003;49.518;11.280;2023-09-12T06:59:50;27.90;70.30
76211;DHT22;65003;49.518;11.280;2023-09-12T07:02:17;28.20;68.90
76211;DHT22;65003;49.518;11.280;2023-09-12T07:04:43;28.30;68.90
76211;DHT22;65003;49.518;11.280;2023-09-12T07:07:10;28.40;66.80
76211;DHT22;65003;49.518;11.280;2023-09-12T07:09:37;28.00;68.30
76211;DHT22;65003;49.518;11.280;2023-09-12T07:12:03;27.60;68.80
76211;DHT22;65003;49.518;11.280;2023-09-12T07:14:30;27.60;69.30
76211;DHT22;65003;49.518;11.280;2023-09-12T07:16:57;27.50;69.70
76211;DHT22;65003;49.518;11.280;2023-09-12T07:19:23;27.90;68.90
76211;DHT22;65003;49.518;11.280;2023-09-12T07:21:50;28.40;67.80
76211;DHT22;65003;49.518;11.280;2023-09-12T07:24:16;29.20;66.10
76211;DHT22;65003;49.518;11.280;2023-09-12T07:26:43;30.40;61.00
76211;DHT22;65003;49.518;11.280;2023-09-12T07:31:36;31.30;58.50
76211;DHT22;65003;49.518;11.280;2023-09-12T07:34:03;31.60;56.70
76211;DHT22;65003;49.518;11.280;2023-09-12T07:36:30;31.70;56.40
76211;DHT22;65003;49.518;11.280;2023-09-12T07:41:23;32.90;52.90
76211;DHT22;65003;49.518;11.280;2023-09-12T07:43:49;33.40;53.20
76211;DHT22;65003;49.518;11.280;2023-09-12T07:46:16;33.90;50.30
76211;DHT22;65003;49.518;11.280;2023-09-12T07:48:43;34.20;50.20
76211;DHT22;65003;49.518;11.280;2023-09-12T07:51:12;34.70;49.30
76211;DHT22;65003;49.518;11.280;2023-09-12T07:53:38;35.00;47.90
76211;DHT22;65003;49.518;11.280;2023-09-12T07:56:04;35.40;47.30
76211;DHT22;65003;49.518;11.280;2023-09-12T07:58:31;35.00;47.10
76211;DHT22;65003;49.518;11.280;2023-09-12T08:00:58;34.90;47.90
76211;DHT22;65003;49.518;11.280;2023-09-12T08:03:24;35.20;47.00
76211;DHT22;65003;49.518;11.280;2023-09-12T08:05:55;35.30;46.40
76211;DHT22;65003;49.518;11.280;2023-09-12T08:08:21;35.30;46.60
76211;DHT22;65003;49.518;11.280;2023-09-12T08:10:48;35.60;46.10
76211;DHT22;65003;49.518;11.280;2023-09-12T08:13:14;36.70;44.60
76211;DHT22;65003;49.518;11.280;2023-09-12T08:15:41;37.90;42.50
76211;DHT22;65003;49.518;11.280;2023-09-12T08:18:08;38.80;41.10
76211;DHT22;65003;49.518;11.280;2023-09-12T08:20:34;39.50;39.50
76211;DHT22;65003;49.518;11.280;2023-09-12T08:23:01;40.40;37.90
76211;DHT22;65003;49.518;11.280;2023-09-12T08:25:27;41.20;36.60
76211;DHT22;65003;49.518;11.280;2023-09-12T08:27:54;41.80;34.60
76211;DHT22;65003;49.518;11.280;2023-09-12T08:30:21;42.30;34.10
76211;DHT22;65003;49.518;11.280;2023-09-12T08:32:47;42.70;33.50
76211;DHT22;65003;49.518;11.280;2023-09-12T08:35:15;43.00;33.20
76211;DHT22;65003;49.518;11.280;2023-09-12T08:37:41;43.70;32.50
76211;DHT22;65003;49.518;11.280;2023-09-12T08:40:08;44.40;32.10
76211;DHT22;65003;49.518;11.280;2023-09-12T08:42:43;45.20;30.70
76211;DHT22;65003;49.518;11.280;2023-09-12T08:45:14;45.40;29.90
76211;DHT22;65003;49.518;11.280;2023-09-12T08:47:41;45.80;29.80
76211;DHT22;65003;49.518;11.280;2023-09-12T08:50:10;46.10;29.30
76211;DHT22;65003;49.518;11.280;2023-09-12T08:52:36;46.50;29.00
76211;DHT22;65003;49.518;11.280;2023-09-12T08:55:03;47.10;28.40
76211;DHT22;65003;49.518;11.280;2023-09-12T08:57:31;47.20;28.30
76211;DHT22;65003;49.518;11.280;2023-09-12T08:59:56;47.50;27.90
76211;DHT22;65003;49.518;11.280;2023-09-12T09:02:23;48.00;27.20
76211;DHT22;65003;49.518;11.280;2023-09-12T09:04:50;48.50;27.00
76211;DHT22;65003;49.518;11.280;2023-09-12T09:07:16;49.00;26.50
76211;DHT22;65003;49.518;11.280;2023-09-12T09:09:43;49.50;26.70
76211;DHT22;65003;49.518;11.280;2023-09-12T09:12:09;49.90;25.80
76211;DHT22;65003;49.518;11.280;2023-09-12T09:14:36;50.50;25.70
76211;DHT22;65003;49.518;11.280;2023-09-12T09:17:03;50.70;25.30
76211;DHT22;65003;49.518;11.280;2023-09-12T09:19:43;50.70;25.30
76211;DHT22;65003;49.518;11.280;2023-09-12T09:22:09;50.70;25.10
76211;DHT22;65003;49.518;11.280;2023-09-12T09:24:35;50.80;25.10
76211;DHT22;65003;49.518;11.280;2023-09-12T09:27:02;50.50;25.10
76211;DHT22;65003;49.518;11.280;2023-09-12T09:29:28;50.40;25.10
76211;DHT22;65003;49.518;11.280;2023-09-12T09:34:22;50.60;24.50
76211;DHT22;65003;49.518;11.280;2023-09-12T09:36:50;50.70;25.10
76211;DHT22;65003;49.518;11.280;2023-09-12T09:39:17;50.90;24.40
76211;DHT22;65003;49.518;11.280;2023-09-12T09:41:47;51.30;24.30
76211;DHT22;65003;49.518;11.280;2023-09-12T09:44:10;51.30;23.50
76211;DHT22;65003;49.518;11.280;2023-09-12T09:46:36;51.50;23.90
76211;DHT22;65003;49.518;11.280;2023-09-12T09:49:03;51.70;23.80
76211;DHT22;65003;49.518;11.280;2023-09-12T09:51:30;51.70;24.00
76211;DHT22;65003;49.518;11.280;2023-09-12T09:53:56;52.40;23.30
76211;DHT22;65003;49.518;11.280;2023-09-12T09:56:23;53.00;22.70
76211;DHT22;65003;49.518;11.280;2023-09-12T09:58:52;53.10;23.00
76211;DHT22;65003;49.518;11.280;2023-09-12T10:01:18;52.60;23.00
76211;DHT22;65003;49.518;11.280;2023-09-12T10:03:45;52.70;23.10
76211;DHT22;65003;49.518;11.280;2023-09-12T10:06:11;53.30;22.20
76211;DHT22;65003;49.518;11.280;2023-09-12T10:08:38;53.50;22.70
76211;DHT22;65003;49.518;11.280;2023-09-12T10:11:04;53.60;22.60
76211;DHT22;65003;49.518;11.280;2023-09-12T10:13:31;53.20;22.70
76211;DHT22;65003;49.518;11.280;2023-09-12T10:15:58;53.20;22.80
76211;DHT22;65003;49.518;11.280;2023-09-12T10:18:24;53.50;22.60
76211;DHT22;65003;49.518;11.280;2023-09-12T10:20:52;53.50;22.40
76211;DHT22;65003;49.518;11.280;2023-09-12T10:23:34;53.10;22.90
76211;DHT22;65003;49.518;11.280;2023-09-12T10:25:57;52.60;22.90
76211;DHT22;65003;49.518;11.280;2023-09-12T10:28:24;52.50;23.10
76211;DHT22;65003;49.518;11.280;2023-09-12T10:30:51;52.90;22.50
76211;DHT22;65003;49.518;11.280;2023-09-12T10:33:17;53.50;22.30
76211;DHT22;65003;49.518;11.280;2023-09-12T10:35:44;54.10;21.40
76211;DHT22;65003;49.518;11.280;2023-09-12T10:38:10;54.10;21.30
76211;DHT22;65003;49.518;11.280;2023-09-12T10:40:37;53.80;21.50
76211;DHT22;65003;49.518;11.280;2023-09-12T10:43:04;54.20;21.40
76211;DHT22;65003;49.518;11.280;2023-09-12T10:45:31;54.60;21.10
76211;DHT22;65003;49.518;11.280;2023-09-12T10:47:58;54.80;21.10
76211;DHT22;65003;49.518;11.280;2023-09-12T10:52:51;54.90;20.30
76211;DHT22;65003;49.518;11.280;2023-09-12T10:55:17;54.70;20.90
76211;DHT22;65003;49.518;11.280;2023-09-12T10:57:59;54.40;21.20
76211;DHT22;65003;49.518;11.280;2023-09-12T11:00:26;54.30;21.30
76211;DHT22;65003;49.518;11.280;2023-09-12T11:02:52;53.80;21.90
76211;DHT22;65003;49.518;11.280;2023-09-12T11:05:36;53.40;22.20
76211;DHT22;65003;49.518;11.280;2023-09-12T11:08:02;51.70;22.80
76211;DHT22;65003;49.518;11.280;2023-09-12T11:10:29;49.70;23.90
76211;DHT22;65003;49.518;11.280;2023-09-12T11:12:56;45.50;26.00
76211;DHT22;65003;49.518;11.280;2023-09-12T11:15:23;45.30;26.70
76211;DHT22;65003;49.518;11.280;2023-09-12T11:17:51;43.20;28.20
76211;DHT22;65003;49.518;11.280;2023-09-12T11:20:16;41.60;29.60
76211;DHT22;65003;49.518;11.280;2023-09-12T11:22:43;40.50;31.80
76211;DHT22;65003;49.518;11.280;2023-09-12T11:25:18;39.60;32.40
76211;DHT22;65003;49.518;11.280;2023-09-12T11:30:26;38.30;34.90
76211;DHT22;65003;49.518;11.280;2023-09-12T11:32:53;38.00;34.60
76211;DHT22;65003;49.518;11.280;2023-09-12T11:35:24;37.70;35.60
76211;DHT22;65003;49.518;11.280;2023-09-12T11:37:51;37.40;35.40
76211;DHT22;65003;49.518;11.280;2023-09-12T11:40:18;37.30;34.70
76211;DHT22;65003;49.518;11.280;2023-09-12T11:42:43;37.10;34.60
76211;DHT22;65003;49.518;11.280;2023-09-12T11:45:10;36.90;35.40
76211;DHT22;65003;49.518;11.280;2023-09-12T11:47:40;36.70;35.80
76211;DHT22;65003;49.518;11.280;2023-09-12T11:50:06;36.50;35.70
76211;DHT22;65003;49.518;11.280;2023-09-12T11:52:35;36.30;35.50
76211;DHT22;65003;49.518;11.280;2023-09-12T11:54:59;36.10;36.70
76211;DHT22;65003;49.518;11.280;2023-09-12T11:57:26;36.10;36.60
76211;DHT22;65003;49.518;11.280;2023-09-12T11:59:53;36.10;36.60
76211;DHT22;65003;49.518;11.280;2023-09-12T12:02:19;35.90;37.00
76211;DHT22;65003;49.518;11.280;2023-09-12T12:04:46;35.90;37.60
76211;DHT22;65003;49.518;11.280;2023-09-12T12:07:12;35.70;37.80
76211;DHT22;65003;49.518;11.280;2023-09-12T12:09:39;35.70;40.60
76211;DHT22;65003;49.518;11.280;2023-09-12T12:12:09;35.60;39.00
76211;DHT22;65003;49.518;11.280;2023-09-12T12:14:35;35.40;40.40
76211;DHT22;65003;49.518;11.280;2023-09-12T12:17:05;35.30;40.60
76211;DHT22;65003;49.518;11.280;2023-09-12T12:19:31;35.40;39.50
76211;DHT22;65003;49.518;11.280;2023-09-12T12:21:58;35.40;38.80
76211;DHT22;65003;49.518;11.280;2023-09-12T12:24:24;35.30;38.10
76211;DHT22;65003;49.518;11.280;2023-09-12T12:26:51;35.10;38.40
76211;DHT22;65003;49.518;11.280;2023-09-12T12:29:18;35.00;39.20
76211;DHT22;65003;49.518;11.280;2023-09-12T12:31:44;35.00;38.50
76211;DHT22;65003;49.518;11.280;2023-09-12T12:34:11;34.90;38.70
76211;DHT22;65003;49.518;11.280;2023-09-12T12:36:41;34.70;40.00
76211;DHT22;65003;49.518;11.280;2023-09-12T12:39:09;34.70;39.80
76211;DHT22;65003;49.518;11.280;2023-09-12T12:41:34;34.80;39.70
76211;DHT22;65003;49.518;11.280;2023-09-12T12:44:01;34.90;40.60
76211;DHT22;65003;49.518;11.280;2023-09-12T12:46:27;35.00;40.80
76211;DHT22;65003;49.518;11.280;2023-09-12T12:48:54;35.00;40.20
76211;DHT22;65003;49.518;11.280;2023-09-12T12:51:21;35.10;40.60
76211;DHT22;65003;49.518;11.280;2023-09-12T12:53:48;35.10;39.00
76211;DHT22;65003;49.518;11.280;2023-09-12T12:56:14;35.00;39.20
76211;DHT22;65003;49.518;11.280;2023-09-12T12:58:48;34.90;41.20
76211;DHT22;65003;49.518;11.280;2023-09-12T13:01:15;34.80;40.90
76211;DHT22;65003;49.518;11.280;2023-09-12T13:03:41;34.80;41.70
76211;DHT22;65003;49.518;11.280;2023-09-12T13:06:08;34.80;41.00
76211;DHT22;65003;49.518;11.280;2023-09-12T13:08:34;34.90;40.80
76211;DHT22;65003;49.518;11.280;2023-09-12T13:11:01;34.90;41.60
76211;DHT22;65003;49.518;11.280;2023-09-12T13:13:27;34.90;40.90
76211;DHT22;65003;49.518;11.280;2023-09-12T13:15:54;34.80;39.40
76211;DHT22;65003;49.518;11.280;2023-09-12T13:18:20;34.60;39.40
76211;DHT22;65003;49.518;11.280;2023-09-12T13:20:47;34.40;40.20
76211;DHT22;65003;49.518;11.280;2023-09-12T13:23:14;34.30;40.60
76211;DHT22;65003;49.518;11.280;2023-09-12T13:25:41;34.10;43.10
76211;DHT22;65003;49.518;11.280;2023-09-12T13:28:08;34.10;44.00
76211;DHT22;65003;49.518;11.280;2023-09-12T13:30:34;34.10;44.90
76211;DHT22;65003;49.518;11.280;2023-09-12T13:33:01;34.10;44.60
76211;DHT22;65003;49.518;11.280;2023-09-12T13:35:28;34.10;45.00
76211;DHT22;65003;49.518;11.280;2023-09-12T13:37:54;34.20;44.00
76211;DHT22;65003;49.518;11.280;2023-09-12T13:40:21;34.20;42.80
76211;DHT22;65003;49.518;11.280;2023-09-12T13:42:47;34.10;42.70
76211;DHT22;65003;49.518;11.280;2023-09-12T13:45:14;34.00;42.50
76211;DHT22;65003;49.518;11.280;2023-09-12T13:50:08;33.60;41.40
76211;DHT22;65003;49.518;11.280;2023-09-12T13:52:34;33.30;43.30
76211;DHT22;65003;49.518;11.280;2023-09-12T13:55:01;33.20;44.60
76211;DHT22;65003;49.518;11.280;2023-09-12T13:57:27;33.20;44.00
76211;DHT22;65003;49.518;11.280;2023-09-12T13:59:54;33.10;43.20
76211;DHT22;65003;49.518;11.280;2023-09-12T14:02:21;33.00;44.40
76211;DHT22;65003;49.518;11.280;2023-09-12T14:04:48;33.00;44.90
76211;DHT22;65003;49.518;11.280;2023-09-12T14:07:15;33.00;45.00
76211;DHT22;65003;49.518;11.280;2023-09-12T14:09:42;33.00;45.30
76211;DHT22;65003;49.518;11.280;2023-09-12T14:12:08;33.00;45.10
76211;DHT22;65003;49.518;11.280;2023-09-12T14:14:35;32.90;45.00
76211;DHT22;65003;49.518;11.280;2023-09-12T14:17:01;32.80;46.00
76211;DHT22;65003;49.518;11.280;2023-09-12T14:19:28;32.70;44.70
76211;DHT22;65003;49.518;11.280;2023-09-12T14:21:55;32.70;47.20
76211;DHT22;65003;49.518;11.280;2023-09-12T14:24:21;32.60;44.30
76211;DHT22;65003;49.518;11.280;2023-09-12T14:26:48;32.60;45.50
76211;DHT22;65003;49.518;11.280;2023-09-12T14:29:14;32.60;45.90
76211;DHT22;65003;49.518;11.280;2023-09-12T14:31:41;32.50;45.00
76211;DHT22;65003;49.518;11.280;2023-09-12T14:34:08;32.40;44.20
76211;DHT22;65003;49.518;11.280;2023-09-12T14:36:34;32.40;44.90
76211;DHT22;65003;49.518;11.280;2023-09-12T14:39:01;32.30;44.60
76211;DHT22;65003;49.518;11.280;2023-09-12T14:41:27;32.20;46.10
76211;DHT22;65003;49.518;11.280;2023-09-12T14:43:54;32.00;44.80
76211;DHT22;65003;49.518;11.280;2023-09-12T14:46:21;31.90;45.30
76211;DHT22;65003;49.518;11.280;2023-09-12T14:48:47;31.90;45.90
76211;DHT22;65003;49.518;11.280;2023-09-12T14:51:14;31.80;46.70
76211;DHT22;65003;49.518;11.280;2023-09-12T14:53:40;31.70;47.20
76211;DHT22;65003;49.518;11.280;2023-09-12T14:56:07;31.70;46.40
76211;DHT22;65003;49.518;11.280;2023-09-12T14:58:34;31.60;46.30
76211;DHT22;65003;49.518;11.280;2023-09-12T15:01:00;31.40;46.90
76211;DHT22;65003;49.518;11.280;2023-09-12T15:03:27;31.30;47.20
76211;DHT22;65003;49.518;11.280;2023-09-12T15:05:53;31.20;47.40
76211;DHT22;65003;49.518;11.280;2023-09-12T15:08:20;31.10;48.20
76211;DHT22;65003;49.518;11.280;2023-09-12T15:10:47;31.10;48.00
76211;DHT22;65003;49.518;11.280;2023-09-12T15:13:13;31.00;47.90
76211;DHT22;65003;49.518;11.280;2023-09-12T15:15:40;31.00;49.30
76211;DHT22;65003;49.518;11.280;2023-09-12T15:18:06;30.90;49.00
76211;DHT22;65003;49.518;11.280;2023-09-12T15:20:33;30.90;48.40
76211;DHT22;65003;49.518;11.280;2023-09-12T15:23:00;30.80;48.40
76211;DHT22;65003;49.518;11.280;2023-09-12T15:25:26;30.70;48.50
76211;DHT22;65003;49.518;11.280;2023-09-12T15:27:53;30.60;49.20